sensor_id;sensor_type;location;lat;lon;timestamp;temperature;humidity
18950;DHT22;9608;49.288;8.130;2023-06-14T00:02:23;19.70;86.20
18950;DHT22;9608;49.288;8.130;2023-06-14T00:04:51;19.70;86.00
18950;DHT22;9608;49.288;8.130;2023-06-14T00:07:18;19.80;86.00
18950;DHT22;9608;49.288;8.130;2023-06-14T00:09:45;19.80;86.00
18950;DHT22;9608;49.288;8.130;2023-06-14T00:12:11;19.70;86.30
18950;DHT22;9608;49.288;8.130;2023-06-14T00:14:38;19.70;86.60
18950;DHT22;9608;49.288;8.130;2023-06-14T00:17:05;19.70;86.40
18950;DHT22;9608;49.288;8.130;2023-06-14T00:19:32;19.70;86.80
18950;DHT22;9608;49.288;8.130;2023-06-14T00:22:02;19.70;87.20
18950;DHT22;9608;49.288;8.130;2023-06-14T00:24:29;19.70;87.30
18950;DHT22;9608;49.288;8.130;2023-06-14T00:26:55;19.60;87.70
18950;DHT22;9608;49.288;8.130;2023-06-14T00:29:22;19.50;88.20
18950;DHT22;9608;49.288;8.130;2023-06-14T00:31:48;19.50;88.50
18950;DHT22;9608;49.288;8.130;2023-06-14T00:34:15;19.40;89.00
18950;DHT22;9608;49.288;8.130;2023-06-14T00:36:42;19.30;89.50
18950;DHT22;9608;49.288;8.130;2023-06-14T00:39:10;19.20;90.20
18950;DHT22;9608;49.288;8.130;2023-06-14T00:41:37;19.20;90.30
18950;DHT22;9608;49.288;8.130;2023-06-14T00:44:04;19.20;90.30
18950;DHT22;9608;49.288;8.130;2023-06-14T00:46:31;19.20;90.20
18950;DHT22;9608;49.288;8.130;2023-06-14T00:48:58;19.30;90.30
18950;DHT22;9608;49.288;8.130;2023-06-14T00:51:26;19.30;90.30
18950;DHT22;9608;49.288;8.130;2023-06-14T00:53:53;19.30;90.40
18950;DHT22;9608;49.288;8.130;2023-06-14T00:56:21;19.20;90.40
18950;DHT22;9608;49.288;8.130;2023-06-14T00:58:49;19.20;90.70
18950;DHT22;9608;49.288;8.130;2023-06-14T01:01:16;19.10;91.00
18950;DHT22;9608;49.288;8.130;2023-06-14T01:03:43;19.20;90.80
18950;DHT22;9608;49.288;8.130;2023-06-14T01:06:18;19.30;90.70
18950;DHT22;9608;49.288;8.130;2023-06-14T01:09:00;19.30;90.70
18950;DHT22;9608;49.288;8.130;2023-06-14T01:11:32;19.30;90.90
18950;DHT22;9608;49.288;8.130;2023-06-14T01:14:02;19.30;90.90
18950;DHT22;9608;49.288;8.130;2023-06-14T01:16:30;19.30;91.00
18950;DHT22;9608;49.288;8.130;2023-06-14T01:18:58;19.20;91.20
18950;DHT22;9608;49.288;8.130;2023-06-14T01:21:25;19.20;91.40
18950;DHT22;9608;49.288;8.130;2023-06-14T01:23:55;19.10;91.70
18950;DHT22;9608;49.288;8.130;2023-06-14T01:26:22;19.00;91.80
18950;DHT22;9608;49.288;8.130;2023-06-14T01:28:50;19.00;92.10
18950;DHT22;9608;49.288;8.130;2023-06-14T01:31:19;18.80;92.30
18950;DHT22;9608;49.288;8.130;2023-06-14T01:33:48;18.80;92.40
18950;DHT22;9608;49.288;8.130;2023-06-14T01:36:16;18.80;92.60
18950;DHT22;9608;49.288;8.130;2023-06-14T01:38:44;18.80;92.80
18950;DHT22;9608;49.288;8.130;2023-06-14T01:41:13;18.80;92.90
18950;DHT22;9608;49.288;8.130;2023-06-14T01:43:41;18.70;93.00
18950;DHT22;9608;49.288;8.130;2023-06-14T01:46:09;18.70;93.20
18950;DHT22;9608;49.288;8.130;2023-06-14T01:48:36;18.70;93.50
18950;DHT22;9608;49.288;8.130;2023-06-14T01:51:03;18.60;93.80
18950;DHT22;9608;49.288;8.130;2023-06-14T01:53:29;18.60;94.10
18950;DHT22;9608;49.288;8.130;2023-06-14T01:55:56;18.50;94.40
18950;DHT22;9608;49.288;8.130;2023-06-14T01:58:24;18.40;94.90
18950;DHT22;9608;49.288;8.130;2023-06-14T02:00:51;18.30;95.10
18950;DHT22;9608;49.288;8.130;2023-06-14T02:03:20;18.20;95.50
18950;DHT22;9608;49.288;8.130;2023-06-14T02:05:48;18.20;95.80
18950;DHT22;9608;49.288;8.130;2023-06-14T02:08:15;18.20;96.00
18950;DHT22;9608;49.288;8.130;2023-06-14T02:10:42;18.20;96.30
18950;DHT22;9608;49.288;8.130;2023-06-14T02:13:08;18.10;96.40
18950;DHT22;9608;49.288;8.130;2023-06-14T02:15:36;18.20;96.50
18950;DHT22;9608;49.288;8.130;2023-06-14T02:18:04;18.20;96.70
18950;DHT22;9608;49.288;8.130;2023-06-14T02:20:30;18.10;97.00
18950;DHT22;9608;49.288;8.130;2023-06-14T02:22:57;18.00;97.30
18950;DHT22;9608;49.288;8.130;2023-06-14T02:25:24;18.00;97.50
18950;DHT22;9608;49.288;8.130;2023-06-14T02:27:53;18.10;97.70
18950;DHT22;9608;49.288;8.130;2023-06-14T02:30:20;18.10;97.80
18950;DHT22;9608;49.288;8.130;2023-06-14T02:32:48;18.10;97.80
18950;DHT22;9608;49.288;8.130;2023-06-14T02:35:16;18.10;97.90
18950;DHT22;9608;49.288;8.130;2023-06-14T02:37:43;18.20;98.00
18950;DHT22;9608;49.288;8.130;2023-06-14T02:40:10;18.10;98.20
18950;DHT22;9608;49.288;8.130;2023-06-14T02:42:37;18.10;98.40
18950;DHT22;9608;49.288;8.130;2023-06-14T02:45:05;18.10;98.60
18950;DHT22;9608;49.288;8.130;2023-06-14T02:47:32;18.10;98.80
18950;DHT22;9608;49.288;8.130;2023-06-14T02:50:00;18.10;99.00
18950;DHT22;9608;49.288;8.130;2023-06-14T02:52:27;18.10;99.10
18950;DHT22;9608;49.288;8.130;2023-06-14T02:54:54;18.10;99.20
18950;DHT22;9608;49.288;8.130;2023-06-14T02:57:22;18.10;99.10
18950;DHT22;9608;49.288;8.130;2023-06-14T02:59:48;18.20;99.10
18950;DHT22;9608;49.288;8.130;2023-06-14T03:02:15;18.20;99.50
18950;DHT22;9608;49.288;8.130;2023-06-14T03:04:42;18.10;99.80
18950;DHT22;9608;49.288;8.130;2023-06-14T03:07:11;18.00;99.90
18950;DHT22;9608;49.288;8.130;2023-06-14T03:09:39;17.90;99.90
18950;DHT22;9608;49.288;8.130;2023-06-14T03:12:06;17.80;99.90
18950;DHT22;9608;49.288;8.130;2023-06-14T03:14:35;17.80;99.90
18950;DHT22;9608;49.288;8.130;2023-06-14T03:17:02;17.80;99.90
18950;DHT22;9608;49.288;8.130;2023-06-14T03:19:30;17.80;99.90
18950;DHT22;9608;49.288;8.130;2023-06-14T03:21:57;17.80;99.90
18950;DHT22;9608;49.288;8.130;2023-06-14T03:24:25;17.80;99.90
18950;DHT22;9608;49.288;8.130;2023-06-14T03:26:52;17.80;99.90
18950;DHT22;9608;49.288;8.130;2023-06-14T03:29:19;17.90;99.90
18950;DHT22;9608;49.288;8.130;2023-06-14T03:31:57;18.00;99.90
18950;DHT22;9608;49.288;8.130;2023-06-14T03:34:24;18.10;99.90
18950;DHT22;9608;49.288;8.130;2023-06-14T03:36:51;18.10;99.90
18950;DHT22;9608;49.288;8.130;2023-06-14T03:39:18;18.20;99.90
18950;DHT22;9608;49.288;8.130;2023-06-14T03:41:46;18.10;99.90
18950;DHT22;9608;49.288;8.130;2023-06-14T03:44:15;18.10;99.90
18950;DHT22;9608;49.288;8.130;2023-06-14T03:46:42;18.10;99.90
18950;DHT22;9608;49.288;8.130;2023-06-14T03:49:08;18.20;99.90
18950;DHT22;9608;49.288;8.130;2023-06-14T03:51:35;18.30;99.90
18950;DHT22;9608;49.288;8.130;2023-06-14T03:54:02;18.40;99.90
18950;DHT22;9608;49.288;8.130;2023-06-14T03:56:28;18.50;99.90
18950;DHT22;9608;49.288;8.130;2023-06-14T03:58:56;18.60;99.90
18950;DHT22;9608;49.288;8.130;2023-06-14T04:01:23;18.70;99.90
18950;DHT22;9608;49.288;8.130;2023-06-14T04:03:52;18.80;99.90
18950;DHT22;9608;49.288;8.130;2023-06-14T04:06:19;19.00;99.80
18950;DHT22;9608;49.288;8.130;2023-06-14T04:08:46;19.20;99.30
18950;DHT22;9608;49.288;8.130;2023-06-14T04:11:14;19.40;99.70
18950;DHT22;9608;49.288;8.130;2023-06-14T04:13:41;19.70;99.90
18950;DHT22;9608;49.288;8.130;2023-06-14T04:16:09;19.90;99.50
18950;DHT22;9608;49.288;8.130;2023-06-14T04:18:36;20.10;98.00
18950;DHT22;9608;49.288;8.130;2023-06-14T04:21:03;20.20;98.30
18950;DHT22;9608;49.288;8.130;2023-06-14T04:23:30;20.20;98.90
18950;DHT22;9608;49.288;8.130;2023-06-14T04:25:58;20.20;98.70
18950;DHT22;9608;49.288;8.130;2023-06-14T04:28:28;20.20;98.80
18950;DHT22;9608;49.288;8.130;2023-06-14T04:30:55;20.20;99.30
18950;DHT22;9608;49.288;8.130;2023-06-14T04:33:23;20.00;99.90
18950;DHT22;9608;49.288;8.130;2023-06-14T04:35:50;19.90;99.90
18950;DHT22;9608;49.288;8.130;2023-06-14T04:38:19;19.90;99.90
18950;DHT22;9608;49.288;8.130;2023-06-14T04:40:49;20.00;99.90
18950;DHT22;9608;49.288;8.130;2023-06-14T04:43:18;20.20;99.90
18950;DHT22;9608;49.288;8.130;2023-06-14T04:45:50;20.20;99.90
18950;DHT22;9608;49.288;8.130;2023-06-14T04:48:17;20.10;99.90
18950;DHT22;9608;49.288;8.130;2023-06-14T04:50:46;20.20;99.90
18950;DHT22;9608;49.288;8.130;2023-06-14T04:53:13;20.10;99.90
18950;DHT22;9608;49.288;8.130;2023-06-14T04:55:40;20.20;99.90
18950;DHT22;9608;49.288;8.130;2023-06-14T04:58:10;20.20;99.90
18950;DHT22;9608;49.288;8.130;2023-06-14T05:00:38;20.40;99.90
18950;DHT22;9608;49.288;8.130;2023-06-14T05:03:05;20.40;99.90
18950;DHT22;9608;49.288;8.130;2023-06-14T05:05:33;20.40;99.90
18950;DHT22;9608;49.288;8.130;2023-06-14T05:08:01;20.10;99.90
18950;DHT22;9608;49.288;8.130;2023-06-14T05:10:27;20.00;99.90
18950;DHT22;9608;49.288;8.130;2023-06-14T05:12:54;19.80;99.90
18950;DHT22;9608;49.288;8.130;2023-06-14T05:15:21;19.80;99.90
18950;DHT22;9608;49.288;8.130;2023-06-14T05:17:51;20.00;99.90
18950;DHT22;9608;49.288;8.130;2023-06-14T05:20:20;20.20;99.90
18950;DHT22;9608;49.288;8.130;2023-06-14T05:22:48;20.30;99.90
18950;DHT22;9608;49.288;8.130;2023-06-14T05:25:18;20.30;99.90
18950;DHT22;9608;49.288;8.130;2023-06-14T05:27:45;20.30;99.90
18950;DHT22;9608;49.288;8.130;2023-06-14T05:30:13;20.20;99.90
18950;DHT22;9608;49.288;8.130;2023-06-14T05:32:39;20.30;99.90
18950;DHT22;9608;49.288;8.130;2023-06-14T05:35:07;20.20;99.90
18950;DHT22;9608;49.288;8.130;2023-06-14T05:37:34;20.20;99.90
18950;DHT22;9608;49.288;8.130;2023-06-14T05:40:01;20.20;99.90
18950;DHT22;9608;49.288;8.130;2023-06-14T05:42:30;20.10;99.90
18950;DHT22;9608;49.288;8.130;2023-06-14T05:44:57;20.30;99.90
18950;DHT22;9608;49.288;8.130;2023-06-14T05:47:23;20.30;99.90
18950;DHT22;9608;49.288;8.130;2023-06-14T05:49:51;20.20;99.90
18950;DHT22;9608;49.288;8.130;2023-06-14T05:52:18;20.30;99.90
18950;DHT22;9608;49.288;8.130;2023-06-14T05:54:44;20.30;99.90
18950;DHT22;9608;49.288;8.130;2023-06-14T05:57:11;20.30;99.90
18950;DHT22;9608;49.288;8.130;2023-06-14T05:59:39;20.30;99.90
18950;DHT22;9608;49.288;8.130;2023-06-14T06:02:06;20.10;99.90
18950;DHT22;9608;49.288;8.130;2023-06-14T06:04:33;19.90;99.90
18950;DHT22;9608;49.288;8.130;2023-06-14T06:07:00;20.00;99.90
18950;DHT22;9608;49.288;8.130;2023-06-14T06:09:27;20.00;99.90
18950;DHT22;9608;49.288;8.130;2023-06-14T06:11:54;20.10;99.90
18950;DHT22;9608;49.288;8.130;2023-06-14T06:14:21;20.20;99.90
18950;DHT22;9608;49.288;8.130;2023-06-14T06:16:50;20.00;99.90
18950;DHT22;9608;49.288;8.130;2023-06-14T06:19:18;20.10;99.90
18950;DHT22;9608;49.288;8.130;2023-06-14T06:21:44;20.30;99.90
18950;DHT22;9608;49.288;8.130;2023-06-14T06:24:11;20.30;99.90
18950;DHT22;9608;49.288;8.130;2023-06-14T06:26:38;20.30;99.90
18950;DHT22;9608;49.288;8.130;2023-06-14T06:29:05;20.20;99.90
18950;DHT22;9608;49.288;8.130;2023-06-14T06:31:32;20.10;99.90
18950;DHT22;9608;49.288;8.130;2023-06-14T06:34:00;20.20;99.90
18950;DHT22;9608;49.288;8.130;2023-06-14T06:36:28;20.00;99.90
18950;DHT22;9608;49.288;8.130;2023-06-14T06:38:55;20.10;99.90
18950;DHT22;9608;49.288;8.130;2023-06-14T06:41:22;20.20;99.90
18950;DHT22;9608;49.288;8.130;2023-06-14T06:43:49;20.00;99.90
18950;DHT22;9608;49.288;8.130;2023-06-14T06:46:16;19.90;99.90
18950;DHT22;9608;49.288;8.130;2023-06-14T06:48:44;19.90;99.90
18950;DHT22;9608;49.288;8.130;2023-06-14T06:51:13;20.00;99.90
18950;DHT22;9608;49.288;8.130;2023-06-14T06:53:42;19.80;99.90
18950;DHT22;9608;49.288;8.130;2023-06-14T06:56:09;19.90;99.90
18950;DHT22;9608;49.288;8.130;2023-06-14T06:58:36;19.80;99.90
18950;DHT22;9608;49.288;8.130;2023-06-14T07:01:04;19.80;99.90
18950;DHT22;9608;49.288;8.130;2023-06-14T07:03:34;19.90;99.90
18950;DHT22;9608;49.288;8.130;2023-06-14T07:06:01;20.00;99.90
18950;DHT22;9608;49.288;8.130;2023-06-14T07:08:30;20.00;99.90
18950;DHT22;9608;49.288;8.130;2023-06-14T07:10:58;20.00;99.90
18950;DHT22;9608;49.288;8.130;2023-06-14T07:13:24;20.00;99.90
18950;DHT22;9608;49.288;8.130;2023-06-14T07:15:54;20.10;99.90
18950;DHT22;9608;49.288;8.130;2023-06-14T07:18:21;20.10;99.90
18950;DHT22;9608;49.288;8.130;2023-06-14T07:20:49;20.00;99.90
18950;DHT22;9608;49.288;8.130;2023-06-14T07:23:17;20.00;99.90
18950;DHT22;9608;49.288;8.130;2023-06-14T07:25:46;20.10;99.90
18950;DHT22;9608;49.288;8.130;2023-06-14T07:28:13;20.20;99.90
18950;DHT22;9608;49.288;8.130;2023-06-14T07:30:40;20.30;99.90
18950;DHT22;9608;49.288;8.130;2023-06-14T07:33:07;20.40;99.90
18950;DHT22;9608;49.288;8.130;2023-06-14T07:35:35;20.50;99.90
18950;DHT22;9608;49.288;8.130;2023-06-14T07:38:02;20.50;99.90
18950;DHT22;9608;49.288;8.130;2023-06-14T07:40:29;20.70;99.90
18950;DHT22;9608;49.288;8.130;2023-06-14T07:42:58;20.90;99.90
18950;DHT22;9608;49.288;8.130;2023-06-14T07:45:24;20.80;99.90
18950;DHT22;9608;49.288;8.130;2023-06-14T07:47:51;20.90;99.90
18950;DHT22;9608;49.288;8.130;2023-06-14T07:50:18;20.80;99.90
18950;DHT22;9608;49.288;8.130;2023-06-14T07:52:45;20.90;99.90
18950;DHT22;9608;49.288;8.130;2023-06-14T07:55:12;21.00;99.90
18950;DHT22;9608;49.288;8.130;2023-06-14T07:57:40;20.90;99.90
18950;DHT22;9608;49.288;8.130;2023-06-14T08:00:11;21.10;99.90
18950;DHT22;9608;49.288;8.130;2023-06-14T08:02:41;21.10;99.90
18950;DHT22;9608;49.288;8.130;2023-06-14T08:05:09;21.10;99.90
18950;DHT22;9608;49.288;8.130;2023-06-14T08:07:38;21.00;99.90
18950;DHT22;9608;49.288;8.130;2023-06-14T08:10:06;21.20;99.90
18950;DHT22;9608;49.288;8.130;2023-06-14T08:12:33;21.20;99.90
18950;DHT22;9608;49.288;8.130;2023-06-14T08:15:01;21.30;99.90
18950;DHT22;9608;49.288;8.130;2023-06-14T08:17:33;21.40;99.90
18950;DHT22;9608;49.288;8.130;2023-06-14T08:20:01;21.50;99.90
18950;DHT22;9608;49.288;8.130;2023-06-14T08:22:30;21.80;99.90
18950;DHT22;9608;49.288;8.130;2023-06-14T08:24:59;21.90;99.90
18950;DHT22;9608;49.288;8.130;2023-06-14T08:27:26;22.00;99.90
18950;DHT22;9608;49.288;8.130;2023-06-14T08:29:53;22.10;99.90
18950;DHT22;9608;49.288;8.130;2023-06-14T08:32:21;22.20;99.90
18950;DHT22;9608;49.288;8.130;2023-06-14T08:34:51;22.10;99.90
18950;DHT22;9608;49.288;8.130;2023-06-14T08:37:18;22.10;99.90
18950;DHT22;9608;49.288;8.130;2023-06-14T08:39:45;22.00;99.90
18950;DHT22;9608;49.288;8.130;2023-06-14T08:42:15;22.20;99.90
18950;DHT22;9608;49.288;8.130;2023-06-14T08:44:43;22.30;99.90
18950;DHT22;9608;49.288;8.130;2023-06-14T08:47:11;22.60;99.90
18950;DHT22;9608;49.288;8.130;2023-06-14T08:49:40;22.70;99.90
18950;DHT22;9608;49.288;8.130;2023-06-14T08:54:41;22.90;98.60
18950;DHT22;9608;49.288;8.130;2023-06-14T08:57:11;23.10;98.40
18950;DHT22;9608;49.288;8.130;2023-06-14T08:59:46;23.20;99.20
18950;DHT22;9608;49.288;8.130;2023-06-14T09:02:18;23.10;98.40
18950;DHT22;9608;49.288;8.130;2023-06-14T09:04:48;23.10;98.20
18950;DHT22;9608;49.288;8.130;2023-06-14T09:07:16;23.30;98.70
18950;DHT22;9608;49.288;8.130;2023-06-14T09:09:45;23.00;97.50
18950;DHT22;9608;49.288;8.130;2023-06-14T09:12:13;22.80;96.50
18950;DHT22;9608;49.288;8.130;2023-06-14T09:14:40;22.70;96.70
18950;DHT22;9608;49.288;8.130;2023-06-14T09:17:08;22.90;97.90
18950;DHT22;9608;49.288;8.130;2023-06-14T09:19:36;22.90;96.40
18950;DHT22;9608;49.288;8.130;2023-06-14T09:22:04;22.80;97.30
18950;DHT22;9608;49.288;8.130;2023-06-14T09:24:31;23.00;96.50
18950;DHT22;9608;49.288;8.130;2023-06-14T09:27:02;23.30;95.90
18950;DHT22;9608;49.288;8.130;2023-06-14T09:29:29;23.40;94.80
18950;DHT22;9608;49.288;8.130;2023-06-14T09:31:57;23.30;93.70
18950;DHT22;9608;49.288;8.130;2023-06-14T09:34:24;23.30;94.40
18950;DHT22;9608;49.288;8.130;2023-06-14T09:36:51;23.20;94.30
18950;DHT22;9608;49.288;8.130;2023-06-14T09:39:18;23.00;94.60
18950;DHT22;9608;49.288;8.130;2023-06-14T09:41:45;23.30;94.90
18950;DHT22;9608;49.288;8.130;2023-06-14T09:44:15;23.10;94.50
18950;DHT22;9608;49.288;8.130;2023-06-14T09:46:43;23.30;94.50
18950;DHT22;9608;49.288;8.130;2023-06-14T09:49:11;23.50;93.10
18950;DHT22;9608;49.288;8.130;2023-06-14T09:51:43;23.80;93.10
18950;DHT22;9608;49.288;8.130;2023-06-14T09:54:16;23.80;93.10
18950;DHT22;9608;49.288;8.130;2023-06-14T09:56:45;23.70;93.10
18950;DHT22;9608;49.288;8.130;2023-06-14T09:59:19;23.50;93.90
18950;DHT22;9608;49.288;8.130;2023-06-14T10:01:54;23.90;92.10
18950;DHT22;9608;49.288;8.130;2023-06-14T10:04:24;23.90;92.20
18950;DHT22;9608;49.288;8.130;2023-06-14T10:06:52;24.00;93.70
18950;DHT22;9608;49.288;8.130;2023-06-14T10:09:21;24.10;92.50
18950;DHT22;9608;49.288;8.130;2023-06-14T10:11:49;23.80;92.90
18950;DHT22;9608;49.288;8.130;2023-06-14T10:14:19;23.50;93.10
18950;DHT22;9608;49.288;8.130;2023-06-14T10:16:55;23.60;93.00
18950;DHT22;9608;49.288;8.130;2023-06-14T10:19:27;23.80;92.80
18950;DHT22;9608;49.288;8.130;2023-06-14T10:22:02;24.00;92.30
18950;DHT22;9608;49.288;8.130;2023-06-14T10:24:33;23.60;92.80
18950;DHT22;9608;49.288;8.130;2023-06-14T10:27:01;23.70;93.00
18950;DHT22;9608;49.288;8.130;2023-06-14T10:29:30;23.90;93.20
18950;DHT22;9608;49.288;8.130;2023-06-14T10:31:59;24.20;91.80
18950;DHT22;9608;49.288;8.130;2023-06-14T10:34:27;24.50;90.10
18950;DHT22;9608;49.288;8.130;2023-06-14T10:37:03;24.20;89.80
18950;DHT22;9608;49.288;8.130;2023-06-14T10:39:37;24.00;91.40
18950;DHT22;9608;49.288;8.130;2023-06-14T10:42:05;24.00;91.00
18950;DHT22;9608;49.288;8.130;2023-06-14T10:44:41;23.80;90.60
18950;DHT22;9608;49.288;8.130;2023-06-14T10:47:25;23.80;90.40
18950;DHT22;9608;49.288;8.130;2023-06-14T10:49:53;24.00;88.70
18950;DHT22;9608;49.288;8.130;2023-06-14T10:52:25;24.40;90.30
18950;DHT22;9608;49.288;8.130;2023-06-14T10:55:00;24.70;87.50
18950;DHT22;9608;49.288;8.130;2023-06-14T10:57:29;24.40;88.10
18950;DHT22;9608;49.288;8.130;2023-06-14T10:59:59;24.30;88.60
18950;DHT22;9608;49.288;8.130;2023-06-14T11:05:51;24.10;86.70
18950;DHT22;9608;49.288;8.130;2023-06-14T11:08:37;24.30;86.90
18950;DHT22;9608;49.288;8.130;2023-06-14T11:11:07;24.40;87.80
18950;DHT22;9608;49.288;8.130;2023-06-14T11:13:37;24.30;87.90
18950;DHT22;9608;49.288;8.130;2023-06-14T11:16:12;24.50;87.30
18950;DHT22;9608;49.288;8.130;2023-06-14T11:18:40;24.50;88.20
18950;DHT22;9608;49.288;8.130;2023-06-14T11:21:08;24.50;86.10
18950;DHT22;9608;49.288;8.130;2023-06-14T11:23:35;24.70;88.20
18950;DHT22;9608;49.288;8.130;2023-06-14T11:26:02;24.90;84.20
18950;DHT22;9608;49.288;8.130;2023-06-14T11:28:37;24.80;82.60
18950;DHT22;9608;49.288;8.130;2023-06-14T11:31:04;24.80;85.00
18950;DHT22;9608;49.288;8.130;2023-06-14T11:33:32;24.40;86.70
18950;DHT22;9608;49.288;8.130;2023-06-14T11:36:02;24.10;87.30
18950;DHT22;9608;49.288;8.130;2023-06-14T11:38:28;23.90;88.70
18950;DHT22;9608;49.288;8.130;2023-06-14T11:40:58;24.00;87.40
18950;DHT22;9608;49.288;8.130;2023-06-14T11:43:25;23.90;87.70
18950;DHT22;9608;49.288;8.130;2023-06-14T11:45:52;23.80;86.20
18950;DHT22;9608;49.288;8.130;2023-06-14T11:48:19;23.70;87.60
18950;DHT22;9608;49.288;8.130;2023-06-14T11:50:49;23.70;86.00
18950;DHT22;9608;49.288;8.130;2023-06-14T11:53:16;23.80;85.30
18950;DHT22;9608;49.288;8.130;2023-06-14T11:55:43;24.00;84.90
18950;DHT22;9608;49.288;8.130;2023-06-14T11:58:13;24.20;84.50
18950;DHT22;9608;49.288;8.130;2023-06-14T12:00:41;24.10;87.00
18950;DHT22;9608;49.288;8.130;2023-06-14T12:03:08;24.00;87.60
18950;DHT22;9608;49.288;8.130;2023-06-14T12:05:36;24.30;83.60
18950;DHT22;9608;49.288;8.130;2023-06-14T12:08:04;24.60;82.00
18950;DHT22;9608;49.288;8.130;2023-06-14T12:10:39;24.50;83.40
18950;DHT22;9608;49.288;8.130;2023-06-14T12:13:07;24.00;86.20
18950;DHT22;9608;49.288;8.130;2023-06-14T12:15:34;24.10;85.10
18950;DHT22;9608;49.288;8.130;2023-06-14T12:18:04;24.10;85.50
18950;DHT22;9608;49.288;8.130;2023-06-14T12:20:32;24.00;83.10
18950;DHT22;9608;49.288;8.130;2023-06-14T12:23:00;24.20;84.80
18950;DHT22;9608;49.288;8.130;2023-06-14T12:25:31;24.30;85.80
18950;DHT22;9608;49.288;8.130;2023-06-14T12:28:04;24.70;84.60
18950;DHT22;9608;49.288;8.130;2023-06-14T12:30:31;24.60;83.40
18950;DHT22;9608;49.288;8.130;2023-06-14T12:32:58;24.70;85.80
18950;DHT22;9608;49.288;8.130;2023-06-14T12:35:25;24.60;84.50
18950;DHT22;9608;49.288;8.130;2023-06-14T12:37:52;24.60;84.90
18950;DHT22;9608;49.288;8.130;2023-06-14T12:40:19;24.90;83.30
18950;DHT22;9608;49.288;8.130;2023-06-14T12:42:47;25.30;80.90
18950;DHT22;9608;49.288;8.130;2023-06-14T12:45:14;25.30;84.80
18950;DHT22;9608;49.288;8.130;2023-06-14T12:47:41;24.70;84.80
18950;DHT22;9608;49.288;8.130;2023-06-14T12:50:08;24.30;84.70
18950;DHT22;9608;49.288;8.130;2023-06-14T12:52:35;24.10;87.30
18950;DHT22;9608;49.288;8.130;2023-06-14T12:55:03;24.50;83.70
18950;DHT22;9608;49.288;8.130;2023-06-14T12:57:30;24.90;83.30
18950;DHT22;9608;49.288;8.130;2023-06-14T13:00:00;25.20;81.70
18950;DHT22;9608;49.288;8.130;2023-06-14T13:02:27;25.20;80.70
18950;DHT22;9608;49.288;8.130;2023-06-14T13:04:54;25.20;84.20
18950;DHT22;9608;49.288;8.130;2023-06-14T13:07:22;24.90;82.50
18950;DHT22;9608;49.288;8.130;2023-06-14T13:09:48;24.60;84.60
18950;DHT22;9608;49.288;8.130;2023-06-14T13:12:15;24.70;85.20
18950;DHT22;9608;49.288;8.130;2023-06-14T13:14:42;24.90;86.80
18950;DHT22;9608;49.288;8.130;2023-06-14T13:17:10;24.90;83.30
18950;DHT22;9608;49.288;8.130;2023-06-14T13:19:37;25.00;83.80
18950;DHT22;9608;49.288;8.130;2023-06-14T13:22:04;25.10;82.10
18950;DHT22;9608;49.288;8.130;2023-06-14T13:24:31;25.40;83.90
18950;DHT22;9608;49.288;8.130;2023-06-14T13:26:58;25.50;82.00
18950;DHT22;9608;49.288;8.130;2023-06-14T13:29:25;25.40;79.60
18950;DHT22;9608;49.288;8.130;2023-06-14T13:31:53;25.20;82.40
18950;DHT22;9608;49.288;8.130;2023-06-14T13:34:22;25.40;80.40
18950;DHT22;9608;49.288;8.130;2023-06-14T13:36:49;25.50;80.60
18950;DHT22;9608;49.288;8.130;2023-06-14T13:39:16;25.60;81.00
18950;DHT22;9608;49.288;8.130;2023-06-14T13:41:42;25.60;79.60
18950;DHT22;9608;49.288;8.130;2023-06-14T13:44:09;25.70;80.70
18950;DHT22;9608;49.288;8.130;2023-06-14T13:46:39;25.20;79.40
18950;DHT22;9608;49.288;8.130;2023-06-14T13:49:06;25.00;83.20
18950;DHT22;9608;49.288;8.130;2023-06-14T13:51:35;24.60;82.90
18950;DHT22;9608;49.288;8.130;2023-06-14T13:54:01;24.30;83.70
18950;DHT22;9608;49.288;8.130;2023-06-14T13:56:28;24.50;84.10
18950;DHT22;9608;49.288;8.130;2023-06-14T13:58:55;24.80;82.80
18950;DHT22;9608;49.288;8.130;2023-06-14T14:01:22;24.90;84.80
18950;DHT22;9608;49.288;8.130;2023-06-14T14:03:51;25.20;83.60
18950;DHT22;9608;49.288;8.130;2023-06-14T14:06:17;25.40;84.60
18950;DHT22;9608;49.288;8.130;2023-06-14T14:08:45;25.30;83.70
18950;DHT22;9608;49.288;8.130;2023-06-14T14:11:12;25.30;83.80
18950;DHT22;9608;49.288;8.130;2023-06-14T14:13:41;25.30;86.20
18950;DHT22;9608;49.288;8.130;2023-06-14T14:16:08;25.10;84.20
18950;DHT22;9608;49.288;8.130;2023-06-14T14:18:36;24.80;83.40
18950;DHT22;9608;49.288;8.130;2023-06-14T14:21:03;24.80;84.60
18950;DHT22;9608;49.288;8.130;2023-06-14T14:23:29;25.20;82.50
18950;DHT22;9608;49.288;8.130;2023-06-14T14:25:58;25.50;83.30
18950;DHT22;9608;49.288;8.130;2023-06-14T14:28:26;25.90;81.40
18950;DHT22;9608;49.288;8.130;2023-06-14T14:30:53;25.90;80.80
18950;DHT22;9608;49.288;8.130;2023-06-14T14:33:20;25.70;80.50
18950;DHT22;9608;49.288;8.130;2023-06-14T14:35:47;25.70;81.50
18950;DHT22;9608;49.288;8.130;2023-06-14T14:38:14;25.80;83.20
18950;DHT22;9608;49.288;8.130;2023-06-14T14:40:42;25.80;81.00
18950;DHT22;9608;49.288;8.130;2023-06-14T14:43:10;25.80;81.50
18950;DHT22;9608;49.288;8.130;2023-06-14T14:45:37;26.10;80.80
18950;DHT22;9608;49.288;8.130;2023-06-14T14:48:04;26.50;77.40
18950;DHT22;9608;49.288;8.130;2023-06-14T14:50:33;26.60;77.50
18950;DHT22;9608;49.288;8.130;2023-06-14T14:53:00;26.70;78.40
18950;DHT22;9608;49.288;8.130;2023-06-14T14:55:26;26.50;80.70
18950;DHT22;9608;49.288;8.130;2023-06-14T14:57:53;25.80;79.50
18950;DHT22;9608;49.288;8.130;2023-06-14T15:00:21;25.30;82.40
18950;DHT22;9608;49.288;8.130;2023-06-14T15:02:48;25.20;80.40
18950;DHT22;9608;49.288;8.130;2023-06-14T15:05:15;25.10;81.40
18950;DHT22;9608;49.288;8.130;2023-06-14T15:07:41;24.90;80.90
18950;DHT22;9608;49.288;8.130;2023-06-14T15:10:10;25.00;82.50
18950;DHT22;9608;49.288;8.130;2023-06-14T15:12:36;25.20;81.80
18950;DHT22;9608;49.288;8.130;2023-06-14T15:15:04;25.30;80.90
18950;DHT22;9608;49.288;8.130;2023-06-14T15:17:32;25.20;80.20
18950;DHT22;9608;49.288;8.130;2023-06-14T15:19:59;25.20;81.60
18950;DHT22;9608;49.288;8.130;2023-06-14T15:22:25;25.40;82.50
18950;DHT22;9608;49.288;8.130;2023-06-14T15:24:52;25.50;82.60
18950;DHT22;9608;49.288;8.130;2023-06-14T15:27:19;25.60;80.00
18950;DHT22;9608;49.288;8.130;2023-06-14T15:29:46;25.60;79.90
18950;DHT22;9608;49.288;8.130;2023-06-14T15:32:13;25.40;79.60
18950;DHT22;9608;49.288;8.130;2023-06-14T15:34:41;25.20;78.90
18950;DHT22;9608;49.288;8.130;2023-06-14T15:37:07;25.30;79.70
18950;DHT22;9608;49.288;8.130;2023-06-14T15:39:34;25.60;80.70
18950;DHT22;9608;49.288;8.130;2023-06-14T15:42:02;25.70;78.70
18950;DHT22;9608;49.288;8.130;2023-06-14T15:44:28;25.60;78.60
18950;DHT22;9608;49.288;8.130;2023-06-14T15:46:55;25.60;80.20
18950;DHT22;9608;49.288;8.130;2023-06-14T15:49:22;25.60;79.00
18950;DHT22;9608;49.288;8.130;2023-06-14T15:51:50;25.80;77.10
18950;DHT22;9608;49.288;8.130;2023-06-14T15:54:16;26.20;77.40
18950;DHT22;9608;49.288;8.130;2023-06-14T15:56:43;26.60;77.80